createdAt,value
2022-07-25T00:00:12.433Z,20.28
2022-07-25T00:05:14.067Z,20.10
2022-07-25T00:10:16.743Z,19.94
2022-07-25T00:15:18.365Z,19.83
2022-07-25T00:20:20.131Z,19.70
2022-07-25T00:25:21.734Z,19.59
2022-07-25T00:30:23.308Z,19.50
2022-07-25T00:35:25.081Z,19.36
2022-07-25T00:40:26.998Z,19.18
2022-07-25T00:45:28.643Z,18.99
2022-07-25T00:50:33.103Z,18.80
2022-07-25T00:55:34.766Z,18.71
2022-07-25T01:00:36.356Z,18.62
2022-07-25T01:05:38.105Z,18.65
2022-07-25T01:10:41.792Z,18.59
2022-07-25T01:15:43.555Z,18.57
2022-07-25T01:20:45.450Z,18.53
2022-07-25T01:25:47.037Z,18.41
2022-07-25T01:30:48.869Z,18.36
2022-07-25T01:35:50.537Z,18.22
2022-07-25T01:40:52.142Z,18.07
2022-07-25T01:45:53.796Z,17.98
2022-07-25T01:50:55.460Z,17.84
2022-07-25T01:55:57.461Z,17.74
2022-07-25T02:00:59.177Z,17.66
2022-07-25T02:06:07.065Z,17.62
2022-07-25T02:11:08.802Z,17.65
2022-07-25T02:16:10.752Z,17.63
2022-07-25T02:21:13.918Z,17.62
2022-07-25T02:26:16.292Z,17.57
2022-07-25T02:31:17.939Z,17.46
2022-07-25T02:36:19.784Z,17.30
2022-07-25T02:41:21.444Z,17.16
2022-07-25T02:46:23.118Z,17.02
2022-07-25T02:51:25.225Z,16.94
2022-07-25T02:56:29.623Z,16.90
2022-07-25T03:01:32.304Z,16.85
2022-07-25T03:06:34.001Z,16.81
2022-07-25T03:11:35.798Z,16.78
2022-07-25T03:16:37.385Z,16.70
2022-07-25T03:21:39.223Z,16.56
2022-07-25T03:26:40.834Z,16.48
2022-07-25T03:31:42.504Z,16.34
2022-07-25T03:36:44.105Z,16.31
2022-07-25T03:41:46.056Z,16.33
2022-07-25T03:46:47.679Z,16.32
2022-07-25T03:51:49.360Z,16.25
2022-07-25T03:56:51.870Z,16.22
2022-07-25T04:01:53.521Z,16.30
2022-07-25T04:06:55.374Z,16.33
2022-07-25T04:11:57.170Z,16.36
2022-07-25T04:16:58.772Z,16.45
2022-07-25T04:22:00.409Z,16.61
2022-07-25T04:27:02.060Z,16.78
2022-07-25T04:32:04.005Z,17.07
2022-07-25T04:37:05.824Z,17.47
2022-07-25T04:42:07.497Z,17.78
2022-07-25T04:47:09.050Z,18.15
2022-07-25T04:52:10.715Z,18.50
2022-07-25T04:57:12.290Z,18.97
2022-07-25T05:02:13.960Z,19.33
2022-07-25T05:07:15.556Z,19.67
2022-07-25T05:12:17.425Z,20.18
2022-07-25T05:17:18.996Z,20.83
2022-07-25T05:22:23.077Z,21.45
2022-07-25T05:27:29.865Z,21.93
2022-07-25T05:32:31.933Z,22.23
2022-07-25T05:37:34.728Z,22.72
2022-07-25T05:42:36.569Z,23.36
2022-07-25T05:47:38.182Z,23.76
2022-07-25T05:52:39.763Z,24.25
2022-07-25T05:57:41.360Z,24.83
2022-07-25T06:02:43.057Z,25.22
2022-07-25T06:07:44.759Z,25.63
2022-07-25T06:12:46.439Z,25.92
2022-07-25T06:17:49.196Z,26.15
2022-07-25T06:22:50.945Z,26.51
2022-07-25T06:27:52.576Z,26.88
2022-07-25T06:32:54.384Z,27.14
2022-07-25T06:37:56.819Z,27.23
2022-07-25T06:42:58.551Z,27.47
2022-07-25T06:48:00.161Z,27.70
2022-07-25T06:53:02.602Z,27.94
2022-07-25T06:58:04.624Z,28.24
2022-07-25T07:03:06.276Z,28.51
2022-07-25T07:08:07.961Z,28.81
2022-07-25T07:13:12.599Z,29.13
2022-07-25T07:18:14.338Z,29.36
2022-07-25T07:23:17.045Z,29.51
2022-07-25T07:28:19.702Z,29.64
2022-07-25T07:33:21.309Z,29.90
2022-07-25T07:38:24.255Z,30.00
2022-07-25T07:43:30.022Z,30.19
2022-07-25T07:48:33.137Z,30.31
2022-07-25T07:53:53.543Z,30.57
2022-07-25T07:58:56.221Z,30.81
2022-07-25T08:03:57.819Z,30.94
2022-07-25T08:08:59.504Z,31.08
2022-07-25T08:14:01.752Z,31.19
2022-07-25T08:19:03.550Z,31.42
2022-07-25T08:24:05.702Z,31.71
2022-07-25T08:29:19.119Z,31.97
2022-07-25T08:34:22.545Z,32.19
2022-07-25T08:39:24.247Z,32.48
2022-07-25T08:44:31.936Z,32.60
2022-07-25T08:49:35.214Z,32.58
2022-07-25T08:54:37.130Z,32.74
2022-07-25T08:59:38.754Z,32.94
2022-07-25T09:04:40.593Z,33.14
2022-07-25T09:09:44.294Z,33.17
2022-07-25T09:14:48.872Z,33.22
2022-07-25T09:19:57.965Z,33.28
2022-07-25T09:24:59.533Z,33.43
2022-07-25T09:30:01.148Z,33.53
2022-07-25T09:35:02.800Z,33.57
2022-07-25T09:40:14.013Z,33.74
2022-07-25T09:45:15.716Z,33.74
2022-07-25T09:50:18.588Z,33.88
2022-07-25T09:55:21.218Z,34.08
2022-07-25T10:00:26.520Z,34.27
2022-07-25T10:05:49.848Z,34.53
2022-07-25T10:10:51.518Z,35.00
2022-07-25T10:15:53.580Z,35.78
2022-07-25T10:21:24.490Z,36.37
2022-07-25T10:26:27.956Z,36.38
2022-07-25T10:31:32.317Z,36.53
2022-07-25T10:36:56.097Z,37.10
2022-07-25T10:42:02.740Z,37.57
2022-07-25T10:47:10.340Z,37.52
2022-07-25T10:52:17.539Z,37.67
2022-07-25T10:57:19.269Z,37.80
2022-07-25T11:02:21.042Z,38.12
2022-07-25T11:07:22.974Z,38.13
2022-07-25T11:12:24.620Z,37.79
2022-07-25T11:17:27.083Z,37.58
2022-07-25T11:22:30.345Z,37.42
2022-07-25T11:27:34.108Z,37.42
2022-07-25T11:32:58.312Z,37.56
2022-07-25T11:38:02.400Z,37.19
2022-07-25T11:43:04.344Z,36.44
2022-07-25T11:48:10.790Z,36.09
2022-07-25T11:53:14.913Z,36.40
2022-07-25T11:58:18.306Z,36.57
2022-07-25T12:03:23.156Z,36.82
2022-07-25T12:08:25.210Z,36.99
2022-07-25T12:13:29.018Z,37.30
2022-07-25T12:18:30.623Z,37.30
2022-07-25T12:23:32.273Z,37.00
2022-07-25T12:28:33.833Z,37.17
2022-07-25T12:33:36.126Z,37.48
2022-07-25T12:38:37.759Z,37.73
2022-07-25T12:43:39.337Z,37.72
2022-07-25T12:48:41.014Z,37.45
2022-07-25T12:53:42.844Z,37.41
2022-07-25T12:58:44.564Z,37.85
2022-07-25T13:03:46.207Z,37.40
2022-07-25T13:08:47.995Z,37.55
2022-07-25T13:13:49.574Z,37.58
2022-07-25T13:18:51.197Z,37.33
2022-07-25T13:23:52.792Z,37.45
2022-07-25T13:28:59.652Z,37.93
2022-07-25T13:34:02.311Z,38.06
2022-07-25T13:39:05.544Z,37.99
2022-07-25T13:44:07.382Z,38.01
2022-07-25T13:49:09.811Z,37.83
2022-07-25T13:54:12.431Z,37.96
2022-07-25T13:59:21.012Z,37.59
2022-07-25T14:04:23.318Z,36.51
2022-07-25T14:09:24.919Z,35.54
2022-07-25T14:14:26.512Z,34.71
2022-07-25T14:19:28.083Z,33.09
2022-07-25T14:24:29.651Z,32.24
2022-07-25T14:29:31.351Z,31.68
2022-07-25T14:34:33.676Z,31.69
2022-07-25T14:39:35.273Z,31.58
2022-07-25T14:44:37.690Z,31.72
2022-07-25T14:49:40.506Z,31.81
2022-07-25T14:54:42.445Z,31.91
2022-07-25T14:59:44.031Z,31.94
2022-07-25T15:04:45.717Z,31.87
2022-07-25T15:09:47.353Z,31.70
2022-07-25T15:14:49.039Z,31.59
2022-07-25T15:19:50.737Z,31.57
2022-07-25T15:30:16.343Z,31.73
2022-07-25T15:35:18.348Z,31.85
2022-07-25T15:40:19.985Z,32.08
2022-07-25T15:45:36.992Z,32.35
2022-07-25T15:50:40.877Z,32.70
2022-07-25T15:55:43.048Z,32.66
2022-07-25T16:00:44.737Z,32.75
2022-07-25T16:05:46.446Z,32.69
2022-07-25T16:10:48.289Z,32.40
2022-07-25T16:15:49.940Z,32.46
2022-07-25T16:20:51.516Z,32.72
2022-07-25T16:25:53.276Z,32.70
2022-07-25T16:30:54.918Z,32.62
2022-07-25T16:35:57.331Z,32.35
2022-07-25T16:40:58.905Z,32.14
2022-07-25T16:46:02.050Z,32.12
2022-07-25T16:51:04.315Z,32.00
2022-07-25T16:56:06.022Z,31.74
2022-07-25T17:01:07.611Z,31.46
2022-07-25T17:06:09.424Z,31.40
2022-07-25T17:11:11.191Z,31.32
2022-07-25T17:16:12.955Z,31.05
2022-07-25T17:21:16.714Z,30.60
2022-07-25T17:26:19.340Z,30.29
2022-07-25T17:31:21.206Z,29.94
2022-07-25T17:36:22.872Z,29.58
2022-07-25T17:41:24.456Z,29.28
2022-07-25T17:46:26.098Z,29.00
2022-07-25T17:51:27.792Z,28.71
2022-07-25T17:56:29.384Z,28.38
2022-07-25T18:01:31.027Z,28.10
2022-07-25T18:06:33.275Z,27.84
2022-07-25T18:11:34.940Z,27.62
2022-07-25T18:16:36.527Z,27.48
2022-07-25T18:21:38.100Z,27.37
2022-07-25T18:26:40.240Z,27.21
2022-07-25T18:31:41.949Z,27.07
2022-07-25T18:36:44.062Z,26.92
2022-07-25T18:41:45.622Z,26.73
2022-07-25T18:46:49.580Z,26.50
2022-07-25T18:51:51.229Z,26.25
2022-07-25T18:56:52.899Z,25.98
2022-07-25T19:01:55.193Z,25.77
2022-07-25T19:06:57.477Z,25.55
2022-07-25T19:12:01.124Z,25.41
2022-07-25T19:17:04.175Z,25.16
2022-07-25T19:22:05.737Z,24.86
2022-07-25T19:27:07.914Z,24.58
2022-07-25T19:32:09.624Z,24.31
2022-07-25T19:37:11.278Z,24.11
2022-07-25T19:42:13.197Z,23.93
2022-07-25T19:47:15.006Z,23.69
2022-07-25T19:52:16.712Z,23.40
2022-07-25T19:57:18.985Z,23.11
2022-07-25T20:02:20.645Z,22.89
2022-07-25T20:07:24.606Z,22.72
2022-07-25T20:12:26.185Z,22.55
2022-07-25T20:17:28.188Z,22.37
2022-07-25T20:22:31.448Z,22.27
2022-07-25T20:27:33.195Z,22.20
2022-07-25T20:32:35.539Z,22.05
2022-07-25T20:37:37.131Z,21.84
2022-07-25T20:42:38.949Z,21.65
2022-07-25T20:47:42.887Z,21.43
2022-07-25T20:52:44.457Z,21.28
2022-07-25T20:57:50.315Z,21.18
2022-07-25T21:02:52.335Z,21.06
2022-07-25T21:07:53.972Z,20.98
2022-07-25T21:12:56.710Z,20.87
2022-07-25T21:17:58.388Z,20.63
2022-07-25T21:22:59.983Z,20.46
2022-07-25T21:28:01.621Z,20.57
2022-07-25T21:33:04.632Z,20.57
2022-07-25T21:38:26.093Z,20.42
2022-07-25T21:43:29.293Z,20.31
2022-07-25T21:48:49.358Z,20.20
2022-07-25T21:53:54.025Z,20.14
2022-07-25T21:58:55.589Z,20.33
2022-07-25T22:03:57.355Z,20.49
2022-07-25T22:08:59.003Z,20.63
2022-07-25T22:14:00.771Z,20.72
2022-07-25T22:19:02.543Z,20.82
2022-07-25T22:24:04.416Z,20.94
2022-07-25T22:29:06.458Z,21.01
2022-07-25T22:34:08.248Z,21.08
2022-07-25T22:39:11.155Z,21.26
2022-07-25T22:44:13.240Z,21.44
2022-07-25T22:49:14.880Z,21.63
2022-07-25T22:54:18.785Z,21.73
2022-07-25T22:59:20.445Z,21.84
2022-07-25T23:04:22.124Z,21.82
2022-07-25T23:09:23.728Z,21.83
2022-07-25T23:14:25.335Z,21.80
2022-07-25T23:19:26.919Z,21.74
2022-07-25T23:24:28.581Z,21.73
2022-07-25T23:29:30.224Z,21.77
2022-07-25T23:34:34.742Z,21.81
2022-07-25T23:39:36.578Z,21.85
2022-07-25T23:44:38.160Z,21.87
2022-07-25T23:49:39.839Z,21.87
2022-07-25T23:54:41.528Z,21.86
2022-07-25T23:59:43.199Z,21.86
